sensor_id;sensor_type;location;lat;lon;timestamp;pressure;altitude;pressure_sealevel;temperature;humidity
51099;BME280;37146;48.210;16.234;2023-05-22T00:01:15;98702.31;;;13.05;100.00
51099;BME280;37146;48.210;16.234;2023-05-22T00:03:43;98706.34;;;12.97;100.00
51099;BME280;37146;48.210;16.234;2023-05-22T00:06:08;98701.13;;;12.81;100.00
51099;BME280;37146;48.210;16.234;2023-05-22T00:08:34;98700.91;;;12.72;100.00
51099;BME280;37146;48.210;16.234;2023-05-22T00:10:59;98695.78;;;12.81;100.00
51099;BME280;37146;48.210;16.234;2023-05-22T00:13:25;98697.69;;;12.79;100.00
51099;BME280;37146;48.210;16.234;2023-05-22T00:15:50;98697.69;;;12.79;100.00
51099;BME280;37146;48.210;16.234;2023-05-22T00:18:15;98700.28;;;12.81;100.00
51099;BME280;37146;48.210;16.234;2023-05-22T00:20:40;98696.00;;;12.78;100.00
51099;BME280;37146;48.210;16.234;2023-05-22T00:23:06;98703.16;;;12.78;100.00
51099;BME280;37146;48.210;16.234;2023-05-22T00:25:34;98698.94;;;12.74;100.00
51099;BME280;37146;48.210;16.234;2023-05-22T00:28:00;98698.31;;;12.70;100.00
51099;BME280;37146;48.210;16.234;2023-05-22T00:30:25;98711.09;;;12.79;100.00
51099;BME280;37146;48.210;16.234;2023-05-22T00:32:50;98702.16;;;12.66;100.00
51099;BME280;37146;48.210;16.234;2023-05-22T00:35:15;98702.63;;;12.73;100.00
51099;BME280;37146;48.210;16.234;2023-05-22T00:37:41;98694.16;;;12.51;100.00
51099;BME280;37146;48.210;16.234;2023-05-22T00:40:06;98694.56;;;12.45;100.00
51099;BME280;37146;48.210;16.234;2023-05-22T00:42:32;98697.25;;;12.31;100.00
51099;BME280;37146;48.210;16.234;2023-05-22T00:44:57;98696.06;;;12.35;100.00
51099;BME280;37146;48.210;16.234;2023-05-22T00:47:22;98700.69;;;12.33;100.00
51099;BME280;37146;48.210;16.234;2023-05-22T00:49:48;98697.00;;;12.48;100.00
51099;BME280;37146;48.210;16.234;2023-05-22T00:52:13;98693.00;;;12.56;100.00
51099;BME280;37146;48.210;16.234;2023-05-22T00:54:38;98687.22;;;12.62;100.00
51099;BME280;37146;48.210;16.234;2023-05-22T00:57:04;98689.75;;;12.50;100.00
51099;BME280;37146;48.210;16.234;2023-05-22T00:59:29;98686.81;;;12.26;100.00
51099;BME280;37146;48.210;16.234;2023-05-22T01:01:55;98690.06;;;12.31;100.00
51099;BME280;37146;48.210;16.234;2023-05-22T01:04:21;98691.47;;;12.37;100.00
51099;BME280;37146;48.210;16.234;2023-05-22T01:06:46;98692.38;;;12.37;100.00
51099;BME280;37146;48.210;16.234;2023-05-22T01:09:12;98685.47;;;12.33;100.00
51099;BME280;37146;48.210;16.234;2023-05-22T01:11:44;98691.88;;;12.31;100.00
51099;BME280;37146;48.210;16.234;2023-05-22T01:16:51;98682.53;;;12.24;100.00
51099;BME280;37146;48.210;16.234;2023-05-22T01:24:37;98690.56;;;12.24;100.00
51099;BME280;37146;48.210;16.234;2023-05-22T01:29:59;98694.69;;;12.00;100.00
51099;BME280;37146;48.210;16.234;2023-05-22T01:32:28;98697.25;;;12.02;100.00
51099;BME280;37146;48.210;16.234;2023-05-22T01:34:55;98703.41;;;12.04;100.00
51099;BME280;37146;48.210;16.234;2023-05-22T01:37:20;98705.03;;;12.06;100.00
51099;BME280;37146;48.210;16.234;2023-05-22T01:39:47;98709.34;;;12.09;100.00
51099;BME280;37146;48.210;16.234;2023-05-22T01:42:12;98701.25;;;11.95;100.00
51099;BME280;37146;48.210;16.234;2023-05-22T01:44:39;98707.56;;;11.94;100.00
51099;BME280;37146;48.210;16.234;2023-05-22T01:47:04;98706.47;;;12.12;100.00
51099;BME280;37146;48.210;16.234;2023-05-22T01:49:32;98700.34;;;12.10;100.00
51099;BME280;37146;48.210;16.234;2023-05-22T01:52:47;98709.59;;;11.90;100.00
51099;BME280;37146;48.210;16.234;2023-05-22T01:54:46;98704.13;;;11.91;100.00
51099;BME280;37146;48.210;16.234;2023-05-22T01:57:23;98703.69;;;11.99;100.00
51099;BME280;37146;48.210;16.234;2023-05-22T02:02:18;98699.53;;;11.94;100.00
51099;BME280;37146;48.210;16.234;2023-05-22T02:04:45;98705.97;;;11.91;100.00
51099;BME280;37146;48.210;16.234;2023-05-22T02:07:12;98700.59;;;11.76;100.00
51099;BME280;37146;48.210;16.234;2023-05-22T02:09:38;98698.78;;;11.77;100.00
51099;BME280;37146;48.210;16.234;2023-05-22T02:12:04;98694.56;;;11.73;100.00
51099;BME280;37146;48.210;16.234;2023-05-22T02:14:30;98683.94;;;11.86;100.00
51099;BME280;37146;48.210;16.234;2023-05-22T02:16:55;98689.50;;;11.83;100.00
51099;BME280;37146;48.210;16.234;2023-05-22T02:19:22;98681.66;;;11.80;100.00
51099;BME280;37146;48.210;16.234;2023-05-22T02:21:47;98684.03;;;11.55;100.00
51099;BME280;37146;48.210;16.234;2023-05-22T02:24:12;98692.06;;;11.55;100.00
51099;BME280;37146;48.210;16.234;2023-05-22T02:26:37;98693.56;;;11.59;100.00
51099;BME280;37146;48.210;16.234;2023-05-22T02:29:03;98689.19;;;11.73;100.00
51099;BME280;37146;48.210;16.234;2023-05-22T02:31:29;98694.66;;;11.71;100.00
51099;BME280;37146;48.210;16.234;2023-05-22T02:33:54;98690.91;;;11.59;100.00
51099;BME280;37146;48.210;16.234;2023-05-22T02:36:20;98686.31;;;11.62;100.00
51099;BME280;37146;48.210;16.234;2023-05-22T02:38:45;98680.09;;;11.47;100.00
51099;BME280;37146;48.210;16.234;2023-05-22T02:41:11;98685.25;;;11.50;100.00
51099;BME280;37146;48.210;16.234;2023-05-22T02:43:36;98679.06;;;11.64;100.00
51099;BME280;37146;48.210;16.234;2023-05-22T02:46:01;98677.63;;;11.58;100.00
51099;BME280;37146;48.210;16.234;2023-05-22T02:48:26;98681.91;;;11.60;100.00
51099;BME280;37146;48.210;16.234;2023-05-22T02:50:53;98677.22;;;11.64;100.00
51099;BME280;37146;48.210;16.234;2023-05-22T02:53:18;98671.75;;;11.51;100.00
51099;BME280;37146;48.210;16.234;2023-05-22T02:55:44;98670.00;;;11.36;100.00
51099;BME280;37146;48.210;16.234;2023-05-22T02:58:10;98667.63;;;11.31;100.00
51099;BME280;37146;48.210;16.234;2023-05-22T03:00:38;98671.34;;;11.28;100.00
51099;BME280;37146;48.210;16.234;2023-05-22T03:03:03;98676.88;;;11.25;100.00
51099;BME280;37146;48.210;16.234;2023-05-22T03:05:31;98675.19;;;11.08;100.00
51099;BME280;37146;48.210;16.234;2023-05-22T03:07:57;98680.53;;;10.94;100.00
51099;BME280;37146;48.210;16.234;2023-05-22T03:10:22;98680.44;;;10.95;100.00
51099;BME280;37146;48.210;16.234;2023-05-22T03:12:47;98673.19;;;10.97;100.00
51099;BME280;37146;48.210;16.234;2023-05-22T03:15:13;98683.88;;;10.97;100.00
51099;BME280;37146;48.210;16.234;2023-05-22T03:17:38;98680.88;;;10.88;100.00
51099;BME280;37146;48.210;16.234;2023-05-22T03:20:03;98679.84;;;10.90;100.00
51099;BME280;37146;48.210;16.234;2023-05-22T03:22:29;98679.75;;;10.92;100.00
51099;BME280;37146;48.210;16.234;2023-05-22T03:24:54;98681.13;;;10.83;100.00
51099;BME280;37146;48.210;16.234;2023-05-22T03:27:19;98683.50;;;11.04;100.00
51099;BME280;37146;48.210;16.234;2023-05-22T03:29:45;98684.72;;;10.98;100.00
51099;BME280;37146;48.210;16.234;2023-05-22T03:32:10;98687.84;;;11.06;100.00
51099;BME280;37146;48.210;16.234;2023-05-22T03:34:35;98682.00;;;11.14;100.00
51099;BME280;37146;48.210;16.234;2023-05-22T03:37:00;98684.66;;;11.00;100.00
51099;BME280;37146;48.210;16.234;2023-05-22T03:39:26;98689.06;;;11.01;100.00
51099;BME280;37146;48.210;16.234;2023-05-22T03:41:51;98679.81;;;11.06;100.00
51099;BME280;37146;48.210;16.234;2023-05-22T03:44:16;98685.47;;;11.16;100.00
51099;BME280;37146;48.210;16.234;2023-05-22T03:46:41;98682.38;;;11.08;100.00
51099;BME280;37146;48.210;16.234;2023-05-22T03:49:07;98675.69;;;11.15;100.00
51099;BME280;37146;48.210;16.234;2023-05-22T03:51:32;98680.47;;;11.10;100.00
51099;BME280;37146;48.210;16.234;2023-05-22T03:53:57;98688.13;;;11.16;100.00
51099;BME280;37146;48.210;16.234;2023-05-22T03:56:22;98690.63;;;11.19;100.00
51099;BME280;37146;48.210;16.234;2023-05-22T03:58:48;98686.78;;;11.09;100.00
51099;BME280;37146;48.210;16.234;2023-05-22T04:01:14;98690.25;;;11.11;100.00
51099;BME280;37146;48.210;16.234;2023-05-22T04:03:40;98683.00;;;11.13;100.00
51099;BME280;37146;48.210;16.234;2023-05-22T04:06:06;98691.09;;;11.11;100.00
51099;BME280;37146;48.210;16.234;2023-05-22T04:08:31;98681.25;;;11.12;100.00
51099;BME280;37146;48.210;16.234;2023-05-22T04:10:56;98683.34;;;11.07;100.00
51099;BME280;37146;48.210;16.234;2023-05-22T04:13:22;98690.19;;;11.27;100.00
51099;BME280;37146;48.210;16.234;2023-05-22T04:15:47;98686.69;;;11.41;100.00
51099;BME280;37146;48.210;16.234;2023-05-22T04:18:14;98690.63;;;11.50;100.00
51099;BME280;37146;48.210;16.234;2023-05-22T04:20:39;98695.66;;;11.40;100.00
51099;BME280;37146;48.210;16.234;2023-05-22T04:23:06;98700.84;;;11.43;100.00
51099;BME280;37146;48.210;16.234;2023-05-22T04:25:31;98697.38;;;11.41;100.00
51099;BME280;37146;48.210;16.234;2023-05-22T04:27:58;98693.28;;;11.64;100.00
51099;BME280;37146;48.210;16.234;2023-05-22T04:30:23;98694.44;;;11.74;100.00
51099;BME280;37146;48.210;16.234;2023-05-22T04:32:49;98696.66;;;11.82;100.00
51099;BME280;37146;48.210;16.234;2023-05-22T04:35:14;98690.16;;;11.72;100.00
51099;BME280;37146;48.210;16.234;2023-05-22T04:37:42;98686.03;;;11.66;100.00
51099;BME280;37146;48.210;16.234;2023-05-22T04:40:09;98689.19;;;11.73;100.00
51099;BME280;37146;48.210;16.234;2023-05-22T04:42:36;98692.84;;;11.86;100.00
51099;BME280;37146;48.210;16.234;2023-05-22T04:45:01;98691.72;;;12.05;100.00
51099;BME280;37146;48.210;16.234;2023-05-22T04:47:26;98688.19;;;12.04;100.00
51099;BME280;37146;48.210;16.234;2023-05-22T04:49:53;98691.34;;;12.11;100.00
51099;BME280;37146;48.210;16.234;2023-05-22T04:52:19;98692.66;;;12.33;100.00
51099;BME280;37146;48.210;16.234;2023-05-22T04:54:45;98687.50;;;12.15;100.00
51099;BME280;37146;48.210;16.234;2023-05-22T04:57:10;98689.03;;;12.34;100.00
51099;BME280;37146;48.210;16.234;2023-05-22T04:59:35;98688.81;;;12.37;100.00
51099;BME280;37146;48.210;16.234;2023-05-22T05:02:02;98684.22;;;12.39;100.00
51099;BME280;37146;48.210;16.234;2023-05-22T05:04:27;98685.13;;;12.52;100.00
51099;BME280;37146;48.210;16.234;2023-05-22T05:06:53;98684.53;;;12.62;100.00
51099;BME280;37146;48.210;16.234;2023-05-22T05:09:19;98688.34;;;12.72;100.00
51099;BME280;37146;48.210;16.234;2023-05-22T05:11:44;98692.13;;;12.82;100.00
51099;BME280;37146;48.210;16.234;2023-05-22T05:14:10;98687.81;;;13.07;100.00
51099;BME280;37146;48.210;16.234;2023-05-22T05:16:35;98687.38;;;13.13;100.00
51099;BME280;37146;48.210;16.234;2023-05-22T05:19:00;98692.44;;;13.18;100.00
51099;BME280;37146;48.210;16.234;2023-05-22T05:21:26;98686.78;;;13.23;100.00
51099;BME280;37146;48.210;16.234;2023-05-22T05:23:51;98686.88;;;13.21;100.00
51099;BME280;37146;48.210;16.234;2023-05-22T05:26:17;98682.38;;;13.35;100.00
51099;BME280;37146;48.210;16.234;2023-05-22T05:28:42;98684.28;;;13.47;100.00
51099;BME280;37146;48.210;16.234;2023-05-22T05:31:07;98687.28;;;13.68;100.00
51099;BME280;37146;48.210;16.234;2023-05-22T05:33:32;98690.84;;;13.69;100.00
51099;BME280;37146;48.210;16.234;2023-05-22T05:35:57;98681.38;;;13.63;100.00
51099;BME280;37146;48.210;16.234;2023-05-22T05:38:23;98682.25;;;13.76;100.00
51099;BME280;37146;48.210;16.234;2023-05-22T05:40:48;98693.09;;;14.01;100.00
51099;BME280;37146;48.210;16.234;2023-05-22T05:43:13;98692.22;;;14.13;100.00
51099;BME280;37146;48.210;16.234;2023-05-22T05:45:39;98689.06;;;14.32;100.00
51099;BME280;37146;48.210;16.234;2023-05-22T05:48:05;98692.03;;;14.41;100.00
51099;BME280;37146;48.210;16.234;2023-05-22T05:50:30;98688.34;;;14.54;100.00
51099;BME280;37146;48.210;16.234;2023-05-22T05:52:55;98691.31;;;14.63;100.00
51099;BME280;37146;48.210;16.234;2023-05-22T05:55:20;98685.19;;;14.74;100.00
51099;BME280;37146;48.210;16.234;2023-05-22T05:57:46;98677.03;;;14.87;100.00
51099;BME280;37146;48.210;16.234;2023-05-22T06:00:11;98673.31;;;15.00;100.00
51099;BME280;37146;48.210;16.234;2023-05-22T06:02:37;98677.28;;;15.08;100.00
51099;BME280;37146;48.210;16.234;2023-05-22T06:05:03;98678.34;;;15.29;100.00
51099;BME280;37146;48.210;16.234;2023-05-22T06:07:30;98670.72;;;15.35;100.00
51099;BME280;37146;48.210;16.234;2023-05-22T06:09:56;98667.75;;;15.73;100.00
51099;BME280;37146;48.210;16.234;2023-05-22T06:12:21;98665.00;;;15.86;100.00
51099;BME280;37146;48.210;16.234;2023-05-22T06:14:47;98669.28;;;16.12;100.00
51099;BME280;37146;48.210;16.234;2023-05-22T06:17:12;98670.84;;;16.37;100.00
51099;BME280;37146;48.210;16.234;2023-05-22T06:19:37;98672.69;;;16.48;100.00
51099;BME280;37146;48.210;16.234;2023-05-22T06:22:02;98677.56;;;16.65;100.00
51099;BME280;37146;48.210;16.234;2023-05-22T06:24:28;98670.25;;;16.77;100.00
51099;BME280;37146;48.210;16.234;2023-05-22T06:26:53;98672.22;;;16.87;100.00
51099;BME280;37146;48.210;16.234;2023-05-22T06:29:18;98662.56;;;17.17;100.00
51099;BME280;37146;48.210;16.234;2023-05-22T06:31:43;98664.38;;;17.16;97.18
51099;BME280;37146;48.210;16.234;2023-05-22T06:34:09;98675.88;;;17.29;96.89
51099;BME280;37146;48.210;16.234;2023-05-22T06:36:34;98668.28;;;17.44;97.32
51099;BME280;37146;48.210;16.234;2023-05-22T06:39:00;98665.25;;;17.59;94.24
51099;BME280;37146;48.210;16.234;2023-05-22T06:41:25;98669.69;;;17.60;92.16
51099;BME280;37146;48.210;16.234;2023-05-22T06:43:51;98663.06;;;17.74;91.52
51099;BME280;37146;48.210;16.234;2023-05-22T06:46:16;98665.28;;;17.90;90.63
51099;BME280;37146;48.210;16.234;2023-05-22T06:48:41;98660.59;;;17.92;90.07
51099;BME280;37146;48.210;16.234;2023-05-22T06:51:06;98672.69;;;18.09;89.77
51099;BME280;37146;48.210;16.234;2023-05-22T06:53:34;98675.31;;;18.30;88.88
51099;BME280;37146;48.210;16.234;2023-05-22T06:56:00;98678.72;;;18.32;90.26
51099;BME280;37146;48.210;16.234;2023-05-22T06:58:25;98678.78;;;18.42;87.81
51099;BME280;37146;48.210;16.234;2023-05-22T07:00:50;98676.22;;;18.41;86.98
51099;BME280;37146;48.210;16.234;2023-05-22T07:03:16;98680.66;;;18.51;86.04
51099;BME280;37146;48.210;16.234;2023-05-22T07:05:41;98682.97;;;18.76;84.20
51099;BME280;37146;48.210;16.234;2023-05-22T07:08:06;98676.03;;;18.83;82.94
51099;BME280;37146;48.210;16.234;2023-05-22T07:10:32;98669.59;;;18.74;83.12
51099;BME280;37146;48.210;16.234;2023-05-22T07:12:57;98667.44;;;18.78;81.97
51099;BME280;37146;48.210;16.234;2023-05-22T07:15:22;98669.47;;;18.85;83.61
51099;BME280;37146;48.210;16.234;2023-05-22T07:17:48;98658.69;;;19.15;89.35
51099;BME280;37146;48.210;16.234;2023-05-22T07:20:13;98664.22;;;19.23;81.22
51099;BME280;37146;48.210;16.234;2023-05-22T07:22:39;98656.38;;;19.20;82.23
51099;BME280;37146;48.210;16.234;2023-05-22T07:25:05;98662.66;;;19.11;82.27
51099;BME280;37146;48.210;16.234;2023-05-22T07:27:30;98666.34;;;19.49;82.00
51099;BME280;37146;48.210;16.234;2023-05-22T07:29:55;98658.22;;;19.29;81.29
51099;BME280;37146;48.210;16.234;2023-05-22T07:32:20;98655.81;;;19.07;81.42
51099;BME280;37146;48.210;16.234;2023-05-22T07:34:46;98661.66;;;19.51;81.85
51099;BME280;37146;48.210;16.234;2023-05-22T07:37:12;98656.91;;;19.53;80.34
51099;BME280;37146;48.210;16.234;2023-05-22T07:39:38;98660.00;;;19.78;79.00
51099;BME280;37146;48.210;16.234;2023-05-22T07:42:03;98656.88;;;19.73;78.98
51099;BME280;37146;48.210;16.234;2023-05-22T07:44:29;98656.56;;;19.76;76.28
51099;BME280;37146;48.210;16.234;2023-05-22T07:46:54;98652.78;;;20.06;78.47
51099;BME280;37146;48.210;16.234;2023-05-22T07:49:19;98658.19;;;20.16;76.90
51099;BME280;37146;48.210;16.234;2023-05-22T07:51:46;98655.88;;;20.21;76.61
51099;BME280;37146;48.210;16.234;2023-05-22T07:54:11;98655.47;;;20.16;77.90
51099;BME280;37146;48.210;16.234;2023-05-22T07:56:39;98652.66;;;20.36;77.46
51099;BME280;37146;48.210;16.234;2023-05-22T07:59:05;98657.69;;;20.31;76.04
51099;BME280;37146;48.210;16.234;2023-05-22T08:01:31;98655.06;;;20.11;77.37
51099;BME280;37146;48.210;16.234;2023-05-22T08:03:56;98651.09;;;20.61;75.86
51099;BME280;37146;48.210;16.234;2023-05-22T08:06:21;98648.03;;;20.46;75.20
51099;BME280;37146;48.210;16.234;2023-05-22T08:08:47;98650.25;;;20.61;76.61
51099;BME280;37146;48.210;16.234;2023-05-22T08:11:12;98652.16;;;20.78;74.71
51099;BME280;37146;48.210;16.234;2023-05-22T08:13:38;98646.16;;;20.75;75.16
51099;BME280;37146;48.210;16.234;2023-05-22T08:16:03;98648.75;;;21.12;75.38
51099;BME280;37146;48.210;16.234;2023-05-22T08:18:28;98642.38;;;21.22;73.83
51099;BME280;37146;48.210;16.234;2023-05-22T08:20:53;98647.09;;;21.01;72.95
51099;BME280;37146;48.210;16.234;2023-05-22T08:23:19;98643.31;;;21.57;73.23
51099;BME280;37146;48.210;16.234;2023-05-22T08:25:44;98638.13;;;21.64;70.50
51099;BME280;37146;48.210;16.234;2023-05-22T08:28:09;98646.38;;;22.06;70.94
51099;BME280;37146;48.210;16.234;2023-05-22T08:30:35;98634.28;;;21.74;68.26
51099;BME280;37146;48.210;16.234;2023-05-22T08:33:01;98640.88;;;21.98;68.88
51099;BME280;37146;48.210;16.234;2023-05-22T08:35:26;98642.94;;;21.52;65.66
51099;BME280;37146;48.210;16.234;2023-05-22T08:37:51;98634.88;;;21.60;65.33
51099;BME280;37146;48.210;16.234;2023-05-22T08:40:16;98636.19;;;22.43;65.86
51099;BME280;37146;48.210;16.234;2023-05-22T08:42:44;98638.44;;;22.56;63.53
51099;BME280;37146;48.210;16.234;2023-05-22T08:45:09;98629.06;;;22.50;63.39
51099;BME280;37146;48.210;16.234;2023-05-22T08:47:35;98633.56;;;21.72;65.26
51099;BME280;37146;48.210;16.234;2023-05-22T08:50:01;98642.75;;;22.32;66.98
51099;BME280;37146;48.210;16.234;2023-05-22T08:52:33;98635.91;;;22.63;64.04
51099;BME280;37146;48.210;16.234;2023-05-22T08:55:02;98637.63;;;22.72;64.08
51099;BME280;37146;48.210;16.234;2023-05-22T08:57:28;98632.56;;;22.85;62.96
51099;BME280;37146;48.210;16.234;2023-05-22T08:59:55;98628.63;;;22.96;61.28
51099;BME280;37146;48.210;16.234;2023-05-22T09:02:20;98617.91;;;22.95;62.62
51099;BME280;37146;48.210;16.234;2023-05-22T09:04:45;98619.28;;;23.15;64.99
51099;BME280;37146;48.210;16.234;2023-05-22T09:07:10;98624.66;;;22.66;61.70
51099;BME280;37146;48.210;16.234;2023-05-22T09:09:39;98616.19;;;23.10;61.38
51099;BME280;37146;48.210;16.234;2023-05-22T09:12:05;98620.13;;;23.66;60.23
51099;BME280;37146;48.210;16.234;2023-05-22T09:14:40;98622.38;;;23.21;61.31
51099;BME280;37146;48.210;16.234;2023-05-22T09:17:06;98626.41;;;23.66;61.99
51099;BME280;37146;48.210;16.234;2023-05-22T09:19:31;98615.69;;;22.98;62.14
51099;BME280;37146;48.210;16.234;2023-05-22T09:22:03;98627.06;;;23.93;60.02
51099;BME280;37146;48.210;16.234;2023-05-22T09:24:29;98623.91;;;23.48;62.34
51099;BME280;37146;48.210;16.234;2023-05-22T09:26:54;98624.88;;;23.72;59.70
51099;BME280;37146;48.210;16.234;2023-05-22T09:29:19;98625.06;;;23.70;58.73
51099;BME280;37146;48.210;16.234;2023-05-22T09:31:45;98618.75;;;23.70;58.40
51099;BME280;37146;48.210;16.234;2023-05-22T09:34:10;98615.09;;;24.02;57.99
51099;BME280;37146;48.210;16.234;2023-05-22T09:36:38;98612.91;;;23.98;58.88
51099;BME280;37146;48.210;16.234;2023-05-22T09:39:03;98605.50;;;24.54;57.00
51099;BME280;37146;48.210;16.234;2023-05-22T09:41:29;98617.53;;;24.37;56.43
51099;BME280;37146;48.210;16.234;2023-05-22T09:43:55;98608.63;;;24.43;54.40
51099;BME280;37146;48.210;16.234;2023-05-22T09:46:20;98606.16;;;25.11;54.72
51099;BME280;37146;48.210;16.234;2023-05-22T09:48:55;98600.53;;;24.90;54.83
51099;BME280;37146;48.210;16.234;2023-05-22T09:51:20;98606.84;;;25.13;54.89
51099;BME280;37146;48.210;16.234;2023-05-22T09:53:47;98612.13;;;24.20;55.67
51099;BME280;37146;48.210;16.234;2023-05-22T09:56:13;98615.22;;;24.89;53.97
51099;BME280;37146;48.210;16.234;2023-05-22T09:58:40;98607.50;;;24.61;53.63
51099;BME280;37146;48.210;16.234;2023-05-22T10:01:07;98605.66;;;25.69;52.67
51099;BME280;37146;48.210;16.234;2023-05-22T10:03:34;98598.75;;;25.43;52.17
51099;BME280;37146;48.210;16.234;2023-05-22T10:06:01;98606.25;;;25.80;50.35
51099;BME280;37146;48.210;16.234;2023-05-22T10:08:27;98598.56;;;25.60;51.28
51099;BME280;37146;48.210;16.234;2023-05-22T10:10:53;98606.72;;;25.83;51.28
51099;BME280;37146;48.210;16.234;2023-05-22T10:13:19;98596.38;;;25.40;48.72
51099;BME280;37146;48.210;16.234;2023-05-22T10:15:47;98593.72;;;25.47;48.63
51099;BME280;37146;48.210;16.234;2023-05-22T10:18:13;98589.41;;;25.98;49.20
51099;BME280;37146;48.210;16.234;2023-05-22T10:20:39;98593.19;;;25.28;48.96
51099;BME280;37146;48.210;16.234;2023-05-22T10:23:05;98586.78;;;26.34;49.40
51099;BME280;37146;48.210;16.234;2023-05-22T10:25:31;98585.75;;;25.90;48.00
51099;BME280;37146;48.210;16.234;2023-05-22T10:27:57;98584.78;;;26.80;47.80
51099;BME280;37146;48.210;16.234;2023-05-22T10:35:40;98580.94;;;26.59;48.01
51099;BME280;37146;48.210;16.234;2023-05-22T10:40:51;98565.84;;;26.85;46.38
51099;BME280;37146;48.210;16.234;2023-05-22T10:43:16;98572.34;;;26.62;46.62
51099;BME280;37146;48.210;16.234;2023-05-22T10:45:43;98572.06;;;26.57;47.62
51099;BME280;37146;48.210;16.234;2023-05-22T10:48:10;98567.56;;;26.86;45.29
51099;BME280;37146;48.210;16.234;2023-05-22T10:50:36;98567.13;;;27.33;45.18
51099;BME280;37146;48.210;16.234;2023-05-22T10:53:17;98571.38;;;26.33;47.55
51099;BME280;37146;48.210;16.234;2023-05-22T10:55:46;98577.22;;;26.82;46.38
51099;BME280;37146;48.210;16.234;2023-05-22T10:58:12;98563.81;;;26.20;47.56
51099;BME280;37146;48.210;16.234;2023-05-22T11:00:37;98558.34;;;26.94;47.56
51099;BME280;37146;48.210;16.234;2023-05-22T11:03:03;98555.13;;;26.17;47.15
51099;BME280;37146;48.210;16.234;2023-05-22T11:08:07;98547.63;;;26.41;47.60
51099;BME280;37146;48.210;16.234;2023-05-22T11:13:17;98546.25;;;28.02;47.03
51099;BME280;37146;48.210;16.234;2023-05-22T11:15:45;98540.13;;;28.06;45.66
51099;BME280;37146;48.210;16.234;2023-05-22T11:18:10;98535.88;;;27.34;46.02
51099;BME280;37146;48.210;16.234;2023-05-22T11:20:36;98540.59;;;27.18;46.62
51099;BME280;37146;48.210;16.234;2023-05-22T11:23:04;98533.84;;;28.13;47.01
51099;BME280;37146;48.210;16.234;2023-05-22T11:25:31;98529.31;;;28.40;42.90
51099;BME280;37146;48.210;16.234;2023-05-22T11:27:56;98534.50;;;27.80;42.35
51099;BME280;37146;48.210;16.234;2023-05-22T11:30:25;98527.56;;;28.26;42.51
51099;BME280;37146;48.210;16.234;2023-05-22T11:32:51;98520.19;;;28.39;42.23
51099;BME280;37146;48.210;16.234;2023-05-22T11:35:17;98526.88;;;28.17;41.11
51099;BME280;37146;48.210;16.234;2023-05-22T11:37:42;98525.31;;;28.49;41.87
51099;BME280;37146;48.210;16.234;2023-05-22T11:40:08;98520.09;;;29.22;39.65
51099;BME280;37146;48.210;16.234;2023-05-22T11:42:33;98515.56;;;28.47;38.21
51099;BME280;37146;48.210;16.234;2023-05-22T11:44:59;98524.06;;;30.84;36.29
51099;BME280;37146;48.210;16.234;2023-05-22T11:47:27;98524.16;;;30.25;38.44
51099;BME280;37146;48.210;16.234;2023-05-22T11:49:56;98526.16;;;28.01;40.77
51099;BME280;37146;48.210;16.234;2023-05-22T11:52:21;98522.97;;;28.46;40.33
51099;BME280;37146;48.210;16.234;2023-05-22T11:54:47;98517.19;;;27.86;40.77
51099;BME280;37146;48.210;16.234;2023-05-22T11:57:13;98513.38;;;27.80;41.70
51099;BME280;37146;48.210;16.234;2023-05-22T11:59:38;98507.00;;;27.16;43.08
51099;BME280;37146;48.210;16.234;2023-05-22T12:02:03;98511.94;;;28.33;41.45
51099;BME280;37146;48.210;16.234;2023-05-22T12:04:31;98506.75;;;27.68;41.46
51099;BME280;37146;48.210;16.234;2023-05-22T12:06:56;98515.50;;;27.78;42.67
51099;BME280;37146;48.210;16.234;2023-05-22T12:09:21;98507.03;;;27.80;42.76
51099;BME280;37146;48.210;16.234;2023-05-22T12:11:47;98504.56;;;27.56;42.72
51099;BME280;37146;48.210;16.234;2023-05-22T12:14:12;98509.47;;;27.68;42.56
51099;BME280;37146;48.210;16.234;2023-05-22T12:16:38;98525.03;;;27.54;42.87
51099;BME280;37146;48.210;16.234;2023-05-22T12:19:07;98514.22;;;26.95;42.82
51099;BME280;37146;48.210;16.234;2023-05-22T12:21:33;98506.91;;;27.03;42.25
51099;BME280;37146;48.210;16.234;2023-05-22T12:24:02;98516.69;;;27.69;42.92
51099;BME280;37146;48.210;16.234;2023-05-22T12:26:29;98515.50;;;27.78;43.03
51099;BME280;37146;48.210;16.234;2023-05-22T12:28:54;98509.25;;;27.34;42.12
51099;BME280;37146;48.210;16.234;2023-05-22T12:31:20;98501.84;;;27.28;41.48
51099;BME280;37146;48.210;16.234;2023-05-22T12:33:46;98501.97;;;27.83;43.27
51099;BME280;37146;48.210;16.234;2023-05-22T12:36:11;98506.78;;;27.11;42.96
51099;BME280;37146;48.210;16.234;2023-05-22T12:38:36;98505.31;;;26.72;43.04
51099;BME280;37146;48.210;16.234;2023-05-22T12:41:03;98498.63;;;26.01;45.15
51099;BME280;37146;48.210;16.234;2023-05-22T12:43:28;98507.38;;;26.26;44.39
51099;BME280;37146;48.210;16.234;2023-05-22T12:45:53;98502.44;;;26.36;43.39
51099;BME280;37146;48.210;16.234;2023-05-22T12:48:19;98493.97;;;26.75;42.60
51099;BME280;37146;48.210;16.234;2023-05-22T12:50:44;98493.41;;;26.79;43.44
51099;BME280;37146;48.210;16.234;2023-05-22T12:53:10;98495.84;;;26.74;43.22
51099;BME280;37146;48.210;16.234;2023-05-22T12:55:36;98496.56;;;27.61;44.64
51099;BME280;37146;48.210;16.234;2023-05-22T12:58:01;98487.56;;;27.11;43.38
51099;BME280;37146;48.210;16.234;2023-05-22T13:00:27;98498.38;;;26.91;43.66
51099;BME280;37146;48.210;16.234;2023-05-22T13:02:52;98489.47;;;26.89;43.59
51099;BME280;37146;48.210;16.234;2023-05-22T13:05:17;98484.69;;;26.97;42.57